Hauptseite
METAR-TAF:

METAR-TAF

Flughäfen :

Flughafen Kuwait

Kuwait-Stadt, Kuwait

Breite: 29-13N, Länge: 047-59E, Höhe: 55 m

Beobachtung

Neuester Wetterbericht von vor 46 Minuten, um 01:00 UTC
Wind 19 kt aus Nord/Nordwest
Temperatur 36°C
Luftfeuchtigkeit 18%
Luftdruck 996 hPa
Sichtweite: 8000 m
(schwach) , verbreitet Staub

METAR: OKBK 210100Z 33019KT 8000 -BLDU NSC 36/08 Q0996 NOSIG

Zeit: 04:46 (01:46 UTC)

Prognose

Neuester Wetterbericht von vor 3 Stunden und 1 Minuten, um 22:45 UTC
Gültige Prognose vom 21 um 00 UTC bis 22 um 06 UTC
Wind 15 kt aus Nord/Nordwest, Böen bis zu 30 kt
Sichtweite: 7000 m
Himmel klar
Zeitweise
vom 21 um 03 UTC bis 21 um 18 UTC
Sichtweite: 1000 m
Staubtreiben
Zeitweise
vom 21 um 06 UTC bis 21 um 12 UTC
Sichtweite: 0200 m

TAF: OKBK 202245Z 2100/2206 34015G30KT 7000 SKC TEMPO 2103/2118 1000 BLDU TEMPO 2106/2112 0200 DS

Wetterbeobachtungen und Prognosen von mehr als 4000 Flughäfen (METAR und TAF Bericht).

Die verfügbaren Stationen werden durch gelbe und rote Markierungen auf der Karte dargestellt.

Führen Sie die Maus auf sie, um den Namen der Station zu sehen.

Darauf klicken, um die Beobachtung von Wetterbeobachtungen und Prognosen zu sehen.

Um die Karte zu ändern : klicken Sie auf den grünen Tasten mit einem schwarzen Kreuz Zum Vergrößern, auf den grünen Button mit einem Gedankenstrich zu verkleinern, oder auf die grünen Pfeile für benachbarte Karten.


METAR-TAF: